Time;durP1;ratioP1;P1;durP2;ratioP2;P2;SDS_P1;SDS_P2;PMS_P1;PMS_P2;Temp;Humidity;BMP_temperature;BMP_pressure;BME280_temperature;BME280_humidity;BME280_pressure;Samples;Min_cycle;Max_cycle;Signal;HPM_P1;HPM_P2
2022/12/19 00:01:58;;;;;;;;;;;17.50;57.20;;;;;;5055798;28;1310;-67
2022/12/19 00:04:24;;;;;;;;;;;17.50;57.20;;;;;;5057473;28;1383;-67
2022/12/19 00:06:49;;;;;;;;;;;17.50;57.20;;;;;;5055778;28;867;-67
2022/12/19 00:09:15;;;;;;;;;;;17.50;57.20;;;;;;5062609;28;1898;-67
2022/12/19 00:11:40;;;;;;;;;;;17.50;57.20;;;;;;5059880;28;1219;-67
2022/12/19 00:14:06;;;;;;;;;;;17.50;57.20;;;;;;5060791;28;844;-67
2022/12/19 00:16:31;;;;;;;;;;;17.50;57.10;;;;;;5062909;28;1086;-67
2022/12/19 00:18:57;;;;;;;;;;;17.50;57.10;;;;;;5062414;28;812;-68
2022/12/19 00:21:23;;;;;;;;;;;17.50;57.10;;;;;;5060462;28;1301;-67
2022/12/19 00:23:49;;;;;;;;;;;17.50;57.10;;;;;;5061547;28;905;-67
2022/12/19 00:26:15;;;;;;;;;;;17.50;57.10;;;;;;5061683;28;832;-67
2022/12/19 00:28:41;;;;;;;;;;;17.50;57.20;;;;;;5062660;28;1004;-67
2022/12/19 00:31:07;;;;;;;;;;;17.50;57.10;;;;;;5063251;28;1898;-67
2022/12/19 00:33:32;;;;;;;;;;;17.50;57.10;;;;;;5061024;28;1308;-67
2022/12/19 00:35:58;;;;;;;;;;;17.50;57.10;;;;;;5067869;28;1444;-67
2022/12/19 00:38:23;;;;;;;;;;;17.50;57.10;;;;;;5062040;28;897;-67
2022/12/19 00:40:49;;;;;;;;;;;17.50;57.10;;;;;;5060287;28;1283;-67
2022/12/19 00:43:14;;;;;;;;;;;17.50;57.10;;;;;;5056811;28;976;-67
2022/12/19 00:45:40;;;;;;;;;;;17.50;57.10;;;;;;5061647;28;953;-67
2022/12/19 00:48:05;;;;;;;;;;;17.50;57.10;;;;;;5059068;28;1246;-67
2022/12/19 00:50:31;;;;;;;;;;;17.50;57.20;;;;;;5059298;28;2357;-67
2022/12/19 00:52:56;;;;;;;;;;;17.50;57.20;;;;;;5061043;28;980;-67
2022/12/19 00:55:22;;;;;;;;;;;17.50;57.20;;;;;;5062066;28;1018;-67
2022/12/19 00:57:47;;;;;;;;;;;17.50;57.20;;;;;;5059953;28;867;-67
2022/12/19 01:00:13;;;;;;;;;;;17.50;57.20;;;;;;5059390;28;1326;-67
2022/12/19 01:02:39;;;;;;;;;;;17.50;57.20;;;;;;5057508;28;907;-67
2022/12/19 01:05:04;;;;;;;;;;;17.50;57.20;;;;;;5060738;28;1044;-67
2022/12/19 01:07:30;;;;;;;;;;;17.40;57.20;;;;;;5056661;28;1340;-67
2022/12/19 01:09:55;;;;;;;;;;;17.40;57.20;;;;;;5058965;28;1942;-67
2022/12/19 01:15:05;;;;;;;;;;;17.40;57.10;;;;;;5059985;28;797;-67
2022/12/19 01:17:33;;;;;;;;;;;17.50;57.20;;;;;;5063285;28;926;-67
2022/12/19 01:19:59;;;;;;;;;;;17.50;57.20;;;;;;5059284;28;840;-67
2022/12/19 01:22:24;;;;;;;;;;;17.50;57.20;;;;;;5066752;28;1385;-67
2022/12/19 01:24:50;;;;;;;;;;;17.50;57.20;;;;;;5059185;28;891;-67
2022/12/19 01:27:15;;;;;;;;;;;17.50;57.20;;;;;;5059648;28;1626;-67
2022/12/19 01:29:40;;;;;;;;;;;17.50;57.10;;;;;;5059694;28;1959;-67
2022/12/19 01:32:06;;;;;;;;;;;17.50;57.10;;;;;;5062662;28;1348;-67
2022/12/19 01:34:31;;;;;;;;;;;17.50;57.10;;;;;;5061901;28;856;-67
2022/12/19 01:36:57;;;;;;;;;;;17.50;57.10;;;;;;5061996;28;863;-67
2022/12/19 01:39:22;;;;;;;;;;;17.50;57.10;;;;;;5061596;28;927;-67
2022/12/19 01:41:48;;;;;;;;;;;17.50;57.10;;;;;;5060637;28;1317;-67
2022/12/19 01:44:13;;;;;;;;;;;17.50;57.10;;;;;;5057046;28;812;-67
2022/12/19 01:46:40;;;;;;;;;;;17.50;57.10;;;;;;5063084;28;875;-67
2022/12/19 01:49:06;;;;;;;;;;;17.50;57.10;;;;;;5064374;28;1970;-67
2022/12/19 01:51:33;;;;;;;;;;;17.50;57.10;;;;;;5057201;28;1362;-67
2022/12/19 01:54:00;;;;;;;;;;;17.50;57.10;;;;;;5060432;28;997;-67
2022/12/19 01:56:29;;;;;;;;;;;17.50;57.10;;;;;;5057789;28;919;-67
2022/12/19 01:58:55;;;;;;;;;;;17.50;57.10;;;;;;5057316;28;853;-67
2022/12/19 02:01:21;;;;;;;;;;;17.50;57.10;;;;;;5058132;28;1814;-67
2022/12/19 02:03:46;;;;;;;;;;;17.50;57.20;;;;;;5060233;28;1143;-67
2022/12/19 02:06:12;;;;;;;;;;;17.50;57.10;;;;;;5043918;28;1596;-67
2022/12/19 02:08:37;;;;;;;;;;;17.50;57.20;;;;;;5058635;28;914;-67
2022/12/19 02:11:02;;;;;;;;;;;17.50;57.20;;;;;;5067414;28;1964;-67
2022/12/19 02:13:28;;;;;;;;;;;17.50;57.20;;;;;;5062684;28;902;-67
2022/12/19 02:15:53;;;;;;;;;;;17.40;57.10;;;;;;5059138;28;855;-67
2022/12/19 02:18:35;;;;;;;;;;;17.50;57.20;;;;;;5058222;28;867;-67
2022/12/19 02:21:06;;;;;;;;;;;17.40;57.20;;;;;;5059580;28;1278;-67
2022/12/19 02:23:45;;;;;;;;;;;17.50;57.20;;;;;;5059940;28;1089;-68
2022/12/19 02:26:39;;;;;;;;;;;17.50;57.30;;;;;;5062091;28;902;-67
2022/12/19 02:29:08;;;;;;;;;;;17.40;57.20;;;;;;5041751;28;1898;-67
2022/12/19 02:31:33;;;;;;;;;;;17.40;57.20;;;;;;5060983;28;1283;-67
2022/12/19 02:34:12;;;;;;;;;;;17.50;57.20;;;;;;5060124;28;962;-67
2022/12/19 02:36:49;;;;;;;;;;;17.50;57.20;;;;;;5058408;28;1072;-67
2022/12/19 02:39:16;;;;;;;;;;;17.40;57.20;;;;;;5055191;28;859;-67
2022/12/19 02:41:46;;;;;;;;;;;17.50;57.20;;;;;;5057931;28;1352;-67
2022/12/19 02:44:13;;;;;;;;;;;17.40;57.10;;;;;;5062555;28;1333;-67
2022/12/19 02:46:39;;;;;;;;;;;17.50;57.20;;;;;;5063459;28;1387;-67
2022/12/19 02:49:04;;;;;;;;;;;17.50;57.20;;;;;;5062614;28;1906;-67
2022/12/19 02:51:30;;;;;;;;;;;17.50;57.10;;;;;;5063486;28;1358;-67
2022/12/19 02:53:55;;;;;;;;;;;17.50;57.20;;;;;;5061882;28;1278;-67
2022/12/19 02:56:33;;;;;;;;;;;17.50;57.10;;;;;;5048350;28;902;-67
2022/12/19 02:59:05;;;;;;;;;;;17.50;57.10;;;;;;5064058;28;809;-67
2022/12/19 03:01:42;;;;;;;;;;;17.50;57.10;;;;;;5063816;28;1354;-67
2022/12/19 03:04:10;;;;;;;;;;;17.50;57.10;;;;;;5065913;28;1432;-67
2022/12/19 03:06:38;;;;;;;;;;;17.50;57.20;;;;;;5063062;28;878;-67
2022/12/19 03:09:09;;;;;;;;;;;17.50;57.20;;;;;;5061020;28;1906;-67
2022/12/19 03:11:34;;;;;;;;;;;17.50;57.10;;;;;;5059649;28;1322;-67
2022/12/19 03:14:18;;;;;;;;;;;17.40;57.10;;;;;;5069256;28;874;-67
2022/12/19 03:16:44;;;;;;;;;;;17.50;57.10;;;;;;5062357;28;1034;-67
2022/12/19 03:19:10;;;;;;;;;;;17.50;57.10;;;;;;5061866;28;887;-67
2022/12/19 03:21:37;;;;;;;;;;;17.50;57.10;;;;;;5059987;28;1270;-67
2022/12/19 03:24:03;;;;;;;;;;;17.40;57.10;;;;;;5065761;28;911;-67
2022/12/19 03:26:29;;;;;;;;;;;17.50;57.20;;;;;;5058929;28;1387;-66
2022/12/19 03:28:57;;;;;;;;;;;17.50;57.20;;;;;;5060013;28;1926;-68
2022/12/19 03:31:23;;;;;;;;;;;17.50;57.20;;;;;;5059437;28;2128;-67
2022/12/19 03:33:49;;;;;;;;;;;17.40;57.20;;;;;;5061652;28;1464;-67
2022/12/19 03:36:16;;;;;;;;;;;17.40;57.10;;;;;;5057934;28;1363;-66
2022/12/19 03:38:42;;;;;;;;;;;17.40;57.20;;;;;;5061279;28;1446;-67
2022/12/19 03:41:08;;;;;;;;;;;17.40;57.20;;;;;;5060772;28;1453;-67
2022/12/19 03:43:34;;;;;;;;;;;17.40;57.20;;;;;;5058792;28;1412;-67
2022/12/19 03:46:04;;;;;;;;;;;17.40;57.20;;;;;;5064419;28;1587;-68
2022/12/19 03:48:43;;;;;;;;;;;17.40;57.20;;;;;;5059545;28;1343;-67
2022/12/19 03:51:16;;;;;;;;;;;17.40;57.20;;;;;;5060537;28;1961;-68
2022/12/19 03:53:47;;;;;;;;;;;17.40;57.20;;;;;;5057818;28;1658;-67
2022/12/19 03:56:25;;;;;;;;;;;17.40;57.10;;;;;;5058806;28;1627;-68
2022/12/19 03:58:51;;;;;;;;;;;17.40;57.20;;;;;;5064350;28;1343;-68
2022/12/19 04:01:18;;;;;;;;;;;17.40;57.10;;;;;;5061962;28;1306;-68
2022/12/19 04:03:43;;;;;;;;;;;17.40;57.10;;;;;;5059016;28;1327;-68
2022/12/19 04:06:09;;;;;;;;;;;17.40;57.10;;;;;;5060298;28;1366;-67
2022/12/19 04:08:34;;;;;;;;;;;17.40;57.10;;;;;;5068433;28;942;-68
2022/12/19 04:11:04;;;;;;;;;;;17.50;57.10;;;;;;5063799;28;1984;-67
2022/12/19 04:13:34;;;;;;;;;;;17.40;57.10;;;;;;5068694;28;855;-67
2022/12/19 04:16:06;;;;;;;;;;;17.40;57.10;;;;;;5065650;28;851;-67
2022/12/19 04:18:31;;;;;;;;;;;17.50;57.10;;;;;;5065276;28;832;-67
2022/12/19 04:21:05;;;;;;;;;;;17.40;57.10;;;;;;5064689;28;1292;-67
2022/12/19 04:23:32;;;;;;;;;;;17.50;57.10;;;;;;5065059;28;918;-67
2022/12/19 04:25:59;;;;;;;;;;;17.50;57.10;;;;;;5063439;28;942;-67
2022/12/19 04:28:25;;;;;;;;;;;17.50;57.10;;;;;;5068654;28;995;-67
2022/12/19 04:30:51;;;;;;;;;;;17.50;57.10;;;;;;5061382;28;1973;-67
2022/12/19 04:33:16;;;;;;;;;;;17.50;57.20;;;;;;5061483;28;894;-67
2022/12/19 04:35:42;;;;;;;;;;;17.50;57.10;;;;;;5062384;28;864;-67
2022/12/19 04:38:07;;;;;;;;;;;17.40;57.10;;;;;;5062484;28;859;-67
2022/12/19 04:40:33;;;;;;;;;;;17.40;57.10;;;;;;5061265;28;1234;-67
2022/12/19 04:42:59;;;;;;;;;;;17.40;57.10;;;;;;5064099;28;796;-67
2022/12/19 04:45:24;;;;;;;;;;;17.40;57.10;;;;;;5062061;28;935;-67
2022/12/19 04:47:49;;;;;;;;;;;17.40;57.10;;;;;;5063086;28;894;-67
2022/12/19 04:50:15;;;;;;;;;;;17.40;57.10;;;;;;5060779;28;1902;-67
2022/12/19 04:52:40;;;;;;;;;;;17.40;57.20;;;;;;5063827;28;949;-68
2022/12/19 04:55:06;;;;;;;;;;;17.40;57.10;;;;;;5059411;28;1050;-67
2022/12/19 04:57:32;;;;;;;;;;;17.40;57.10;;;;;;5058494;28;768;-67
2022/12/19 04:59:57;;;;;;;;;;;17.40;57.20;;;;;;5063754;28;876;-67
2022/12/19 05:02:23;;;;;;;;;;;17.40;57.20;;;;;;5062133;28;1279;-67
2022/12/19 05:04:49;;;;;;;;;;;17.40;57.20;;;;;;5059140;28;1351;-67
2022/12/19 05:07:14;;;;;;;;;;;17.40;57.20;;;;;;5059561;28;942;-67
2022/12/19 05:09:40;;;;;;;;;;;17.40;57.20;;;;;;5059257;28;1906;-67
2022/12/19 05:12:06;;;;;;;;;;;17.40;57.20;;;;;;5058689;28;1355;-67
2022/12/19 05:14:31;;;;;;;;;;;17.40;57.10;;;;;;5058969;28;986;-69
2022/12/19 05:16:57;;;;;;;;;;;17.40;57.10;;;;;;5062202;28;971;-68
2022/12/19 05:19:22;;;;;;;;;;;17.40;57.00;;;;;;5061585;28;1777;-69
2022/12/19 05:21:48;;;;;;;;;;;17.50;57.00;;;;;;5061246;28;1346;-69
2022/12/19 05:24:13;;;;;;;;;;;17.50;57.00;;;;;;5061156;28;812;-69
2022/12/19 05:26:38;;;;;;;;;;;17.50;56.90;;;;;;5058785;28;872;-69
2022/12/19 05:29:04;;;;;;;;;;;17.60;56.90;;;;;;5061825;28;1897;-68
2022/12/19 05:31:29;;;;;;;;;;;17.60;56.80;;;;;;5060256;28;1345;-68
2022/12/19 05:33:55;;;;;;;;;;;17.60;56.80;;;;;;5057545;28;998;-69
2022/12/19 05:36:21;;;;;;;;;;;17.60;56.70;;;;;;5057022;28;929;-67
2022/12/19 05:38:46;;;;;;;;;;;17.70;56.70;;;;;;5062115;28;780;-66
2022/12/19 05:41:13;;;;;;;;;;;17.70;56.60;;;;;;5055048;28;1211;-66
2022/12/19 05:43:38;;;;;;;;;;;17.70;56.60;;;;;;5062335;28;1299;-66
2022/12/19 05:46:04;;;;;;;;;;;17.70;56.50;;;;;;5061939;28;860;-66
2022/12/19 05:48:29;;;;;;;;;;;17.70;56.50;;;;;;5061279;28;922;-66
2022/12/19 05:50:55;;;;;;;;;;;17.70;56.40;;;;;;5058515;28;1965;-66
2022/12/19 05:53:20;;;;;;;;;;;17.70;56.40;;;;;;5060080;28;958;-67
2022/12/19 05:55:45;;;;;;;;;;;17.70;56.40;;;;;;5058415;28;1006;-67
2022/12/19 05:58:11;;;;;;;;;;;17.70;56.40;;;;;;5062452;28;815;-66
2022/12/19 06:00:36;;;;;;;;;;;17.70;56.30;;;;;;5057387;28;1245;-66
2022/12/19 06:03:02;;;;;;;;;;;17.80;56.40;;;;;;5061328;28;1176;-67
2022/12/19 06:05:27;;;;;;;;;;;17.80;56.30;;;;;;5059640;28;982;-67
2022/12/19 06:07:53;;;;;;;;;;;17.80;56.30;;;;;;5059756;28;792;-67
2022/12/19 06:10:18;;;;;;;;;;;17.80;56.30;;;;;;5059908;28;1913;-68
2022/12/19 06:12:44;;;;;;;;;;;17.80;56.30;;;;;;5059715;28;779;-67
2022/12/19 06:15:09;;;;;;;;;;;17.80;56.90;;;;;;5056338;28;835;-68
2022/12/19 06:17:35;;;;;;;;;;;17.80;56.30;;;;;;5059882;28;860;-68
2022/12/19 06:20:00;;;;;;;;;;;17.80;56.20;;;;;;5062834;28;1018;-68
2022/12/19 06:22:26;;;;;;;;;;;17.80;56.20;;;;;;5065859;28;1314;-68
2022/12/19 06:24:51;;;;;;;;;;;17.80;56.20;;;;;;5066250;28;1006;-68
2022/12/19 06:27:17;;;;;;;;;;;17.80;56.20;;;;;;5065537;28;880;-68
2022/12/19 06:29:42;;;;;;;;;;;17.80;56.20;;;;;;5065777;28;1902;-68
2022/12/19 06:32:08;;;;;;;;;;;17.80;56.20;;;;;;5066080;28;1369;-68
2022/12/19 06:34:33;;;;;;;;;;;17.80;56.20;;;;;;5066133;28;1081;-68
2022/12/19 06:36:58;;;;;;;;;;;17.80;56.20;;;;;;5064556;28;866;-67
2022/12/19 06:39:24;;;;;;;;;;;17.80;56.20;;;;;;5062716;28;879;-67
2022/12/19 06:44:34;;;;;;;;;;;17.80;56.10;;;;;;5063765;28;778;-67
2022/12/19 06:46:59;;;;;;;;;;;17.80;56.20;;;;;;5067533;28;892;-68
2022/12/19 06:49:25;;;;;;;;;;;17.80;56.10;;;;;;5060639;28;1977;-68
2022/12/19 06:51:50;;;;;;;;;;;17.80;56.20;;;;;;5064276;28;1264;-68
2022/12/19 06:54:15;;;;;;;;;;;17.80;56.20;;;;;;5062173;28;836;-68
2022/12/19 06:56:41;;;;;;;;;;;17.80;56.20;;;;;;5060603;28;808;-68
2022/12/19 06:59:07;;;;;;;;;;;17.80;56.20;;;;;;5062306;28;938;-68
2022/12/19 07:01:32;;;;;;;;;;;17.80;56.20;;;;;;5063728;28;1260;-68
2022/12/19 07:03:58;;;;;;;;;;;17.80;56.20;;;;;;5062496;28;1449;-68
2022/12/19 07:06:23;;;;;;;;;;;17.80;56.30;;;;;;5064936;28;812;-68
2022/12/19 07:08:49;;;;;;;;;;;17.80;56.30;;;;;;5067111;28;954;-68
2022/12/19 07:11:14;;;;;;;;;;;17.80;56.30;;;;;;5066461;28;2013;-68
2022/12/19 07:13:39;;;;;;;;;;;17.80;56.30;;;;;;5062313;28;1701;-68
2022/12/19 07:16:05;;;;;;;;;;;17.80;56.30;;;;;;5064115;28;902;-68
2022/12/19 07:18:31;;;;;;;;;;;17.80;56.30;;;;;;5061517;28;878;-68
2022/12/19 07:20:56;;;;;;;;;;;17.70;56.20;;;;;;5063085;28;1354;-67
2022/12/19 07:23:22;;;;;;;;;;;17.70;56.20;;;;;;5065205;28;977;-67
2022/12/19 07:25:47;;;;;;;;;;;17.70;56.20;;;;;;5065149;28;1046;-67
2022/12/19 07:28:13;;;;;;;;;;;17.70;56.30;;;;;;5064469;28;784;-68
2022/12/19 07:30:38;;;;;;;;;;;17.70;56.30;;;;;;5061058;28;1961;-67
2022/12/19 07:33:04;;;;;;;;;;;17.70;56.30;;;;;;5063727;28;918;-67
2022/12/19 07:35:29;;;;;;;;;;;17.70;56.40;;;;;;5063392;28;883;-67
2022/12/19 07:37:59;;;;;;;;;;;17.70;56.40;;;;;;5062851;28;844;-67
2022/12/19 07:40:25;;;;;;;;;;;17.70;56.40;;;;;;5062250;28;1280;-67
2022/12/19 07:42:50;;;;;;;;;;;17.70;56.40;;;;;;5065189;28;888;-67
2022/12/19 07:45:16;;;;;;;;;;;17.70;56.50;;;;;;5063130;28;1301;-67
2022/12/19 07:47:41;;;;;;;;;;;17.70;56.40;;;;;;5057529;28;2408;-67
2022/12/19 07:50:07;;;;;;;;;;;17.70;56.50;;;;;;5064845;28;2092;-67
2022/12/19 07:52:32;;;;;;;;;;;17.70;56.50;;;;;;5060528;28;1383;-67
2022/12/19 07:54:58;;;;;;;;;;;17.70;56.50;;;;;;5062224;28;2282;-67
2022/12/19 07:57:23;;;;;;;;;;;17.70;56.50;;;;;;5059575;28;1309;-67
2022/12/19 07:59:49;;;;;;;;;;;17.70;56.50;;;;;;5063945;28;1348;-68
2022/12/19 08:02:14;;;;;;;;;;;17.70;56.50;;;;;;5061307;28;1351;-67
2022/12/19 08:04:40;;;;;;;;;;;17.70;56.50;;;;;;5062331;28;1052;-67
2022/12/19 08:07:05;;;;;;;;;;;17.70;56.50;;;;;;5061218;28;843;-67
2022/12/19 08:09:30;;;;;;;;;;;17.70;56.50;;;;;;5061920;28;1902;-67
2022/12/19 08:11:57;;;;;;;;;;;17.70;56.50;;;;;;5058973;28;1371;-67
2022/12/19 08:14:23;;;;;;;;;;;17.70;56.50;;;;;;5062353;28;2126;-68
2022/12/19 08:16:48;;;;;;;;;;;17.70;56.50;;;;;;5064565;28;2029;-68
2022/12/19 08:19:13;;;;;;;;;;;17.70;56.40;;;;;;5062576;28;946;-69
2022/12/19 08:21:39;;;;;;;;;;;17.70;56.40;;;;;;5061706;28;1491;-68
2022/12/19 08:24:04;;;;;;;;;;;17.70;56.40;;;;;;5062255;28;1783;-69
2022/12/19 08:26:30;;;;;;;;;;;17.70;56.40;;;;;;5060424;28;1764;-68
2022/12/19 08:28:56;;;;;;;;;;;17.70;56.30;;;;;;5061696;28;1926;-69
2022/12/19 08:31:23;;;;;;;;;;;17.70;56.30;;;;;;5063332;28;2221;-69
2022/12/19 08:33:49;;;;;;;;;;;17.70;56.30;;;;;;5059806;28;1233;-69
2022/12/19 08:36:15;;;;;;;;;;;17.80;56.30;;;;;;5061250;28;950;-68
2022/12/19 08:38:40;;;;;;;;;;;17.80;56.30;;;;;;5064620;28;851;-70
2022/12/19 08:41:06;;;;;;;;;;;17.80;56.30;;;;;;5059356;28;1276;-69
2022/12/19 08:43:31;;;;;;;;;;;17.80;56.30;;;;;;5058774;28;812;-70
2022/12/19 08:45:57;;;;;;;;;;;17.80;56.30;;;;;;5059828;28;928;-70
2022/12/19 08:48:23;;;;;;;;;;;17.80;56.30;;;;;;5063228;28;1086;-70
2022/12/19 08:50:55;;;;;;;;;;;17.80;56.20;;;;;;5061334;28;1948;-70
2022/12/19 08:53:21;;;;;;;;;;;17.80;56.20;;;;;;5062284;28;831;-69
2022/12/19 08:55:47;;;;;;;;;;;17.80;56.20;;;;;;5061016;28;802;-69
2022/12/19 08:58:13;;;;;;;;;;;17.80;56.20;;;;;;5061951;28;874;-69
2022/12/19 09:00:38;;;;;;;;;;;17.80;56.10;;;;;;5061302;28;1342;-68
2022/12/19 09:03:04;;;;;;;;;;;17.80;56.10;;;;;;5060041;28;982;-68
2022/12/19 09:05:29;;;;;;;;;;;17.80;56.10;;;;;;5058596;28;998;-68
2022/12/19 09:07:55;;;;;;;;;;;17.90;56.10;;;;;;5060004;28;863;-68
2022/12/19 09:10:20;;;;;;;;;;;17.90;56.10;;;;;;5064124;28;1959;-68
2022/12/19 09:12:46;;;;;;;;;;;17.90;56.10;;;;;;5061758;28;789;-68
2022/12/19 09:15:11;;;;;;;;;;;17.90;56.10;;;;;;5060671;28;880;-68
2022/12/19 09:17:37;;;;;;;;;;;17.80;56.00;;;;;;5061699;28;900;-68
2022/12/19 09:20:02;;;;;;;;;;;17.90;56.10;;;;;;5061146;28;839;-68
2022/12/19 09:22:28;;;;;;;;;;;17.90;56.00;;;;;;5056985;28;1911;-68
2022/12/19 09:24:54;;;;;;;;;;;17.90;56.00;;;;;;5058933;28;2296;-68
2022/12/19 09:27:19;;;;;;;;;;;17.90;56.00;;;;;;5059693;28;1337;-70
2022/12/19 09:29:44;;;;;;;;;;;17.90;56.00;;;;;;5061726;28;1964;-70
2022/12/19 09:32:10;;;;;;;;;;;17.90;56.00;;;;;;5061581;28;1280;-71
2022/12/19 09:34:37;;;;;;;;;;;17.90;56.00;;;;;;5068119;28;1238;-70
2022/12/19 09:37:02;;;;;;;;;;;17.90;56.00;;;;;;5061073;28;1423;-71
2022/12/19 09:39:28;;;;;;;;;;;17.90;56.00;;;;;;5061430;28;1476;-71
2022/12/19 09:41:53;;;;;;;;;;;17.90;56.00;;;;;;5061489;28;1248;-70
2022/12/19 09:44:24;;;;;;;;;;;17.90;56.00;;;;;;5064001;28;1011;-69
2022/12/19 09:46:51;;;;;;;;;;;17.90;55.90;;;;;;5059522;28;2187;-69
2022/12/19 09:49:18;;;;;;;;;;;17.90;55.90;;;;;;5058002;28;1963;-68
2022/12/19 09:51:56;;;;;;;;;;;17.90;55.90;;;;;;5066539;28;1335;-69
2022/12/19 09:54:23;;;;;;;;;;;17.90;55.90;;;;;;5057911;28;1005;-68
2022/12/19 09:56:49;;;;;;;;;;;17.90;55.90;;;;;;5057897;28;945;-69
2022/12/19 09:59:19;;;;;;;;;;;17.90;55.90;;;;;;5058127;28;947;-68
2022/12/19 10:01:48;;;;;;;;;;;17.90;55.90;;;;;;5060477;28;1278;-69
2022/12/19 10:04:17;;;;;;;;;;;17.90;55.90;;;;;;5059732;28;1446;-68
2022/12/19 10:06:42;;;;;;;;;;;17.90;55.90;;;;;;5060330;28;877;-68
2022/12/19 10:09:10;;;;;;;;;;;18.00;55.90;;;;;;5060950;28;1918;-68
2022/12/19 10:11:41;;;;;;;;;;;17.90;55.90;;;;;;5065782;28;1369;-69
2022/12/19 10:14:22;;;;;;;;;;;18.00;55.90;;;;;;5064083;28;843;-68
2022/12/19 10:16:50;;;;;;;;;;;18.00;55.90;;;;;;5062418;28;1060;-69
2022/12/19 10:19:18;;;;;;;;;;;18.00;55.90;;;;;;5062503;28;864;-68
2022/12/19 10:21:59;;;;;;;;;;;18.00;55.90;;;;;;5060495;28;1242;-69
2022/12/19 10:24:30;;;;;;;;;;;18.00;55.90;;;;;;5062829;28;1101;-68
2022/12/19 10:26:59;;;;;;;;;;;18.00;55.90;;;;;;5059348;28;951;-68
2022/12/19 10:29:43;;;;;;;;;;;18.00;55.90;;;;;;5061790;28;1966;-68
2022/12/19 10:32:21;;;;;;;;;;;18.00;55.90;;;;;;5060390;28;1424;-69
2022/12/19 10:34:46;;;;;;;;;;;18.00;55.90;;;;;;5059595;28;911;-69
2022/12/19 10:37:25;;;;;;;;;;;18.00;55.90;;;;;;5058061;28;864;-68
2022/12/19 10:40:11;;;;;;;;;;;18.00;55.90;;;;;;5058896;28;1018;-69
2022/12/19 10:42:56;;;;;;;;;;;18.00;55.90;;;;;;5059579;28;1259;-69
2022/12/19 10:45:22;;;;;;;;;;;17.90;55.90;;;;;;5059104;28;916;-68
2022/12/19 10:47:54;;;;;;;;;;;18.00;55.90;;;;;;5058692;28;788;-68
2022/12/19 10:50:20;;;;;;;;;;;18.00;55.90;;;;;;5061318;28;1898;-68
2022/12/19 10:52:47;;;;;;;;;;;18.00;55.90;;;;;;5059757;28;891;-68
2022/12/19 10:55:32;;;;;;;;;;;18.00;55.80;;;;;;5061979;28;900;-68
2022/12/19 10:57:58;;;;;;;;;;;18.00;55.90;;;;;;5060184;28;864;-68
2022/12/19 11:00:24;;;;;;;;;;;18.00;55.80;;;;;;5058809;28;1263;-68
2022/12/19 11:02:50;;;;;;;;;;;18.00;55.80;;;;;;5061555;28;898;-68
2022/12/19 11:05:19;;;;;;;;;;;17.90;55.80;;;;;;5069574;28;1475;-68
2022/12/19 11:07:57;;;;;;;;;;;18.00;55.80;;;;;;5063312;28;828;-68
2022/12/19 11:10:33;;;;;;;;;;;17.90;55.80;;;;;;5060971;28;1999;-68
2022/12/19 11:12:58;;;;;;;;;;;18.00;55.80;;;;;;5062981;28;855;-68
2022/12/19 11:15:24;;;;;;;;;;;17.90;55.80;;;;;;5066409;28;855;-68
2022/12/19 11:17:49;;;;;;;;;;;17.90;55.80;;;;;;5057967;28;876;-69
2022/12/19 11:20:19;;;;;;;;;;;17.90;55.80;;;;;;5062638;28;1289;-68
2022/12/19 11:22:51;;;;;;;;;;;18.00;55.80;;;;;;5063514;28;888;-68
2022/12/19 11:25:17;;;;;;;;;;;17.90;55.80;;;;;;5062483;28;818;-68
2022/12/19 11:27:43;;;;;;;;;;;17.90;55.80;;;;;;5064954;28;847;-69
2022/12/19 11:30:15;;;;;;;;;;;18.00;55.80;;;;;;5061494;28;1977;-68
2022/12/19 11:32:41;;;;;;;;;;;18.00;55.80;;;;;;5062860;28;971;-69
2022/12/19 11:35:20;;;;;;;;;;;17.90;55.80;;;;;;5061848;28;955;-69
2022/12/19 11:37:48;;;;;;;;;;;18.00;55.80;;;;;;5064890;28;808;-69
2022/12/19 11:40:16;;;;;;;;;;;18.00;55.80;;;;;;5064804;28;1341;-70
2022/12/19 11:42:48;;;;;;;;;;;18.00;55.80;;;;;;5064749;28;899;-70
2022/12/19 11:45:16;;;;;;;;;;;17.90;55.80;;;;;;5061619;28;904;-69
2022/12/19 11:47:44;;;;;;;;;;;18.00;55.80;;;;;;5063411;28;1298;-70
2022/12/19 11:50:10;;;;;;;;;;;18.00;55.80;;;;;;5064918;28;1965;-70
2022/12/19 11:52:37;;;;;;;;;;;18.00;55.80;;;;;;5063694;28;1402;-70
2022/12/19 11:55:07;;;;;;;;;;;17.90;55.80;;;;;;5061462;28;854;-69
2022/12/19 11:57:32;;;;;;;;;;;17.90;55.80;;;;;;5061996;28;911;-69
2022/12/19 11:59:57;;;;;;;;;;;17.90;55.80;;;;;;5065052;28;1522;-70
2022/12/19 12:02:41;;;;;;;;;;;17.90;55.80;;;;;;5060006;28;2078;-70
2022/12/19 12:05:08;;;;;;;;;;;17.90;55.80;;;;;;5059998;28;1306;-71
2022/12/19 12:07:37;;;;;;;;;;;18.00;55.80;;;;;;5062711;28;1110;-70
2022/12/19 12:10:15;;;;;;;;;;;18.00;55.80;;;;;;5063323;28;1976;-69
2022/12/19 12:13:00;;;;;;;;;;;17.90;55.80;;;;;;5063712;28;1365;-69
2022/12/19 12:15:34;;;;;;;;;;;17.90;55.80;;;;;;5063632;28;846;-69
2022/12/19 12:18:04;;;;;;;;;;;17.90;55.80;;;;;;5061638;28;859;-69
2022/12/19 12:20:39;;;;;;;;;;;18.00;55.80;;;;;;5062980;28;1291;-69
2022/12/19 12:23:21;;;;;;;;;;;18.00;55.80;;;;;;5062854;28;875;-69
2022/12/19 12:26:04;;;;;;;;;;;18.00;55.90;;;;;;5060826;28;867;-69
2022/12/19 12:28:33;;;;;;;;;;;17.90;55.80;;;;;;5061678;28;864;-68
2022/12/19 12:31:13;;;;;;;;;;;18.00;55.80;;;;;;5061893;28;1914;-69
2022/12/19 12:33:46;;;;;;;;;;;18.00;55.80;;;;;;5061865;28;921;-69
2022/12/19 12:36:15;;;;;;;;;;;18.00;55.80;;;;;;5059586;28;1026;-69
2022/12/19 12:38:41;;;;;;;;;;;18.00;55.90;;;;;;5063259;28;821;-69
2022/12/19 12:41:07;;;;;;;;;;;18.00;55.90;;;;;;5061284;28;1298;-69
2022/12/19 12:43:38;;;;;;;;;;;18.00;55.80;;;;;;5058568;28;1309;-70
2022/12/19 12:46:04;;;;;;;;;;;17.90;55.80;;;;;;5059523;28;1089;-69
2022/12/19 12:48:41;;;;;;;;;;;18.00;55.80;;;;;;5059350;28;931;-69
2022/12/19 12:51:07;;;;;;;;;;;17.90;55.80;;;;;;5064917;28;1910;-69
2022/12/19 12:53:33;;;;;;;;;;;18.00;55.90;;;;;;5060649;28;864;-70
2022/12/19 12:55:59;;;;;;;;;;;18.00;55.90;;;;;;5061570;28;891;-68
2022/12/19 12:58:57;;;;;;;;;;;18.00;55.90;;;;;;5062997;28;894;-69
2022/12/19 13:01:29;;;;;;;;;;;18.00;55.90;;;;;;5031242;28;1297;-69
2022/12/19 13:03:58;;;;;;;;;;;18.00;55.90;;;;;;5062869;28;1587;-69
2022/12/19 13:06:24;;;;;;;;;;;18.00;56.50;;;;;;5057815;28;1011;-69
2022/12/19 13:08:50;;;;;;;;;;;18.00;55.90;;;;;;5061028;28;1039;-69
2022/12/19 13:14:04;;;;;;;;;;;18.00;55.90;;;;;;5057647;28;1065;-69
2022/12/19 13:16:42;;;;;;;;;;;18.00;55.90;;;;;;5060706;28;823;-69
2022/12/19 13:19:16;;;;;;;;;;;17.90;55.90;;;;;;5062216;28;910;-69
2022/12/19 13:22:01;;;;;;;;;;;18.00;55.90;;;;;;5057414;28;1369;-69
2022/12/19 13:24:27;;;;;;;;;;;18.00;55.90;;;;;;5063412;28;836;-70
2022/12/19 13:26:52;;;;;;;;;;;18.00;55.90;;;;;;5047242;28;1329;-69
2022/12/19 13:29:31;;;;;;;;;;;18.00;55.90;;;;;;5061551;28;1910;-68
2022/12/19 13:32:06;;;;;;;;;;;17.90;55.90;;;;;;5061802;28;1314;-68
2022/12/19 13:34:32;;;;;;;;;;;17.90;55.90;;;;;;5058125;28;828;-69
2022/12/19 13:37:19;;;;;;;;;;;17.90;55.90;;;;;;5056215;28;1470;-68
2022/12/19 13:39:50;;;;;;;;;;;18.00;55.90;;;;;;5061801;28;1488;-69
2022/12/19 13:45:01;;;;;;;;;;;18.00;55.90;;;;;;5058514;28;1874;-69
2022/12/19 13:47:31;;;;;;;;;;;18.00;56.00;;;;;;5056384;28;1069;-70
2022/12/19 13:49:57;;;;;;;;;;;17.90;55.90;;;;;;5060756;28;1934;-70
2022/12/19 13:52:22;;;;;;;;;;;17.90;55.90;;;;;;5059749;28;1301;-69
2022/12/19 13:54:49;;;;;;;;;;;18.00;55.90;;;;;;5058964;28;941;-69
2022/12/19 13:57:19;;;;;;;;;;;17.90;55.90;;;;;;5060624;28;880;-69
2022/12/19 13:59:45;;;;;;;;;;;17.90;55.90;;;;;;5062495;28;844;-69
2022/12/19 14:02:15;;;;;;;;;;;18.00;55.90;;;;;;5059875;28;1244;-67
2022/12/19 14:04:41;;;;;;;;;;;17.90;55.90;;;;;;5059132;28;1390;-67
2022/12/19 14:07:20;;;;;;;;;;;17.90;55.90;;;;;;5060450;28;819;-67
2022/12/19 14:09:45;;;;;;;;;;;17.90;56.00;;;;;;5059219;28;1965;-67
2022/12/19 14:15:12;;;;;;;;;;;18.00;55.90;;;;;;5059786;28;1287;-68
2022/12/19 14:15:18;;;;;;;;;;;17.90;55.90;;;;;;5057428;28;842;-67
2022/12/19 14:17:48;;;;;;;;;;;17.90;56.00;;;;;;5061977;28;826;-67
2022/12/19 14:20:23;;;;;;;;;;;17.90;56.00;;;;;;5061960;28;1268;-68
2022/12/19 14:22:49;;;;;;;;;;;18.00;56.00;;;;;;5062014;28;903;-67
2022/12/19 14:25:14;;;;;;;;;;;17.90;56.00;;;;;;5060059;28;832;-67
2022/12/19 14:27:40;;;;;;;;;;;17.90;56.00;;;;;;5059327;28;784;-67
2022/12/19 14:30:07;;;;;;;;;;;17.90;56.10;;;;;;5063124;28;2291;-67
2022/12/19 14:32:32;;;;;;;;;;;17.90;56.10;;;;;;5060203;28;1267;-68
2022/12/19 14:34:59;;;;;;;;;;;17.90;56.10;;;;;;5066869;28;1292;-67
2022/12/19 14:37:31;;;;;;;;;;;17.90;56.10;;;;;;5061254;28;1328;-68
2022/12/19 14:40:03;;;;;;;;;;;17.90;56.10;;;;;;5059932;28;1078;-68
2022/12/19 14:45:30;;;;;;;;;;;17.90;56.10;;;;;;5062998;28;849;-68
2022/12/19 14:47:55;;;;;;;;;;;17.90;56.20;;;;;;5061643;28;1196;-67
2022/12/19 14:50:28;;;;;;;;;;;17.90;56.20;;;;;;5064510;28;1910;-66
2022/12/19 14:53:13;;;;;;;;;;;17.90;56.20;;;;;;5062408;28;1108;-67
2022/12/19 14:55:39;;;;;;;;;;;17.90;56.20;;;;;;5063501;28;1247;-67